Time;durP1;ratioP1;P1;durP2;ratioP2;P2;SDS_P1;SDS_P2;PMS_P1;PMS_P2;Temp;Humidity;BMP_temperature;BMP_pressure;BME280_temperature;BME280_humidity;BME280_pressure;Samples;Min_cycle;Max_cycle;Signal;HPM_P1;HPM_P2
2024/02/25 00:02:43;;;;;;;7.50;6.30;;;;;;;17.49;45.65;99944.09;104730;1256;60568;-61
2024/02/25 00:06:01;;;;;;;7.20;5.80;;;;;;;17.36;45.93;99942.80;104722;1256;61236;-61
2024/02/25 00:08:50;;;;;;;10.20;6.80;;;;;;;17.32;46.07;99946.09;104416;1272;74193;-61
2024/02/25 00:11:54;;;;;;;7.50;5.90;;;;;;;17.35;45.79;99947.30;105825;1256;70002;-59
2024/02/25 00:14:34;;;;;;;7.70;6.10;;;;;;;17.09;46.53;99946.00;104543;1261;72448;-60
2024/02/25 00:17:13;;;;;;;6.80;5.80;;;;;;;17.30;46.24;99946.79;104541;1263;60858;-60
2024/02/25 00:20:25;;;;;;;6.90;5.90;;;;;;;17.42;45.73;99948.95;104216;1269;60419;-60
2024/02/25 00:23:05;;;;;;;8.00;6.30;;;;;;;17.19;46.32;99952.66;105135;1257;73324;-59
2024/02/25 00:26:06;;;;;;;8.30;6.80;;;;;;;17.21;46.59;99948.96;104995;1257;70106;-60
2024/02/25 00:28:46;;;;;;;10.80;6.60;;;;;;;17.18;46.62;99946.13;105897;1257;71890;-60
2024/02/25 00:31:25;;;;;;;8.10;6.20;;;;;;;17.18;46.60;99943.45;104277;1273;61493;-59
2024/02/25 00:34:03;;;;;;;7.30;5.80;;;;;;;17.26;46.36;99944.53;104203;1257;61029;-60
2024/02/25 00:37:29;;;;;;;9.90;6.30;;;;;;;17.27;46.49;99951.77;104967;1257;74277;-61
2024/02/25 00:40:11;;;;;;;9.40;6.90;;;;;;;17.18;46.39;99956.59;104826;1257;70143;-61
2024/02/25 00:43:30;;;;;;;7.90;6.90;;;;;;;17.24;46.44;99957.77;104297;1257;72551;-61
2024/02/25 00:47:01;;;;;;;9.10;6.50;;;;;;;17.32;46.16;99963.80;105057;1257;65102;-61
2024/02/25 00:49:49;;;;;;;7.30;6.10;;;;;;;17.32;46.20;99965.20;104683;1257;60644;-61
2024/02/25 00:52:51;;;;;;;7.10;6.30;;;;;;;17.47;45.63;99959.99;104240;1257;74319;-62
2024/02/25 00:55:19;;;;;;;6.80;6.10;;;;;;;17.49;45.55;99955.95;104407;1256;68331;-61
2024/02/25 00:57:53;;;;;;;;;;;;;;;17.52;45.40;99953.98;104670;1256;72677;-60
2024/02/25 01:01:26;;;;;;;10.10;6.40;;;;;;;17.31;45.67;99944.93;104942;1256;61571;-60
2024/02/25 01:05:41;;;;;;;8.30;6.80;;;;;;;17.18;45.83;99948.45;104793;1256;61644;-62
2024/02/25 01:08:50;;;;;;;8.70;6.70;;;;;;;17.07;45.97;99948.61;105094;1256;74221;-61
2024/02/25 01:11:31;;;;;;;9.20;7.00;;;;;;;17.05;46.08;99955.13;104992;1256;68634;-60
2024/02/25 01:14:05;;;;;;;7.80;6.30;;;;;;;17.05;45.85;99959.92;104399;1257;71724;-61
2024/02/25 01:17:31;;;;;;;11.90;8.00;;;;;;;17.31;45.10;99962.12;104916;1271;62509;-62
2024/02/25 01:20:35;;;;;;;8.50;7.00;;;;;;;17.58;44.57;99962.32;104181;1272;61724;-61
2024/02/25 01:23:45;;;;;;;7.80;6.80;;;;;;;17.70;44.27;99961.30;105894;1256;75179;-61
2024/02/25 01:26:19;;;;;;;10.40;8.50;;;;;;;17.68;44.00;99956.98;104410;1258;69412;-61
2024/02/25 01:29:15;;;;;;;9.10;6.90;;;;;;;17.65;43.95;99959.48;104448;1257;72933;-62
2024/02/25 01:31:56;;;;;;;11.60;8.20;;;;;;;17.63;44.07;99963.90;104509;1260;60657;-63
2024/02/25 01:34:30;;;;;;;10.10;7.10;;;;;;;17.73;43.68;99967.11;104425;1257;60571;-62
2024/02/25 01:38:07;;;;;;;10.30;7.50;;;;;;;17.62;43.77;99971.77;104678;1257;77220;-62
2024/02/25 01:41:19;;;;;;;9.00;7.50;;;;;;;17.59;43.59;99968.79;104367;1257;69418;-61
2024/02/25 01:44:05;;;;;;;8.40;7.00;;;;;;;17.36;43.67;99956.45;104525;1260;72842;-62
2024/02/25 01:46:40;;;;;;;9.30;7.60;;;;;;;17.19;44.09;99970.48;105057;1260;61897;-62
2024/02/25 01:50:01;;;;;;;9.00;6.80;;;;;;;17.09;44.47;99972.55;105124;1257;60443;-63
2024/02/25 01:53:19;;;;;;;9.00;6.70;;;;;;;16.93;44.46;99975.58;104804;1259;73893;-62
2024/02/25 01:56:45;;;;;;;8.30;7.10;;;;;;;16.81;44.60;99963.90;104201;1261;69814;-63
2024/02/25 01:59:25;;;;;;;11.20;7.10;;;;;;;16.70;44.83;99983.70;104454;1260;73078;-61
2024/02/25 02:03:27;;;;;;;9.40;7.20;;;;;;;16.61;45.14;99983.21;104257;1257;61247;-60
2024/02/25 02:06:18;;;;;;;8.60;6.90;;;;;;;16.79;44.61;99976.94;104517;1257;61155;-61
2024/02/25 02:09:36;;;;;;;9.40;7.40;;;;;;;16.78;44.62;99967.09;104720;1257;74055;-63
2024/02/25 02:12:22;;;;;;;11.10;7.60;;;;;;;16.84;44.16;99966.35;104432;1258;68554;-61
2024/02/25 02:15:27;;;;;;;8.10;7.30;;;;;;;16.62;44.72;99972.01;104348;1258;73081;-62
2024/02/25 02:18:17;;;;;;;8.60;6.90;;;;;;;16.70;44.51;99983.16;104412;1276;61187;-62
2024/02/25 02:21:05;;;;;;;;;;;;;;;17.01;43.98;99986.52;104924;1254;59920;-62
2024/02/25 02:24:28;;;;;;;9.50;7.10;;;;;;;17.07;43.59;99981.02;104984;1259;74082;-62
2024/02/25 02:27:47;;;;;;;8.60;6.80;;;;;;;17.09;43.58;99983.17;105286;1254;70270;-62
2024/02/25 02:30:34;;;;;;;12.40;7.70;;;;;;;17.13;43.38;99974.42;104900;1256;73076;-62
2024/02/25 02:33:09;;;;;;;11.40;7.50;;;;;;;17.04;43.55;99974.64;105574;1251;61314;-62
2024/02/25 02:37:04;;;;;;;9.30;7.20;;;;;;;17.06;43.43;99976.84;104789;1267;61698;-62
2024/02/25 02:39:37;;;;;;;9.50;7.30;;;;;;;17.03;43.47;99976.48;105416;1253;74220;-60
2024/02/25 02:42:54;;;;;;;9.10;7.30;;;;;;;16.99;43.51;99977.33;104615;1253;70266;-60
2024/02/25 02:46:12;;;;;;;11.90;7.20;;;;;;;17.04;43.44;99981.92;104883;1251;72471;-62
2024/02/25 02:48:59;;;;;;;10.70;7.40;;;;;;;17.03;43.33;99977.77;104342;1257;61482;-63
2024/02/25 02:51:33;;;;;;;11.90;7.20;;;;;;;17.05;43.42;99970.55;107022;1253;59921;-63
2024/02/25 02:54:31;;;;;;;8.80;7.00;;;;;;;16.98;43.52;99966.37;105176;1251;72700;-63
2024/02/25 02:57:49;;;;;;;12.10;6.70;;;;;;;17.02;43.38;99965.80;105265;1253;69200;-63
2024/02/25 03:01:07;;;;;;;;;;;;;;;17.07;43.23;99959.93;104785;1254;72896;-62
2024/02/25 03:03:34;;;;;;;11.70;7.40;;;;;;;17.06;43.25;99960.72;104651;1252;60684;-62
2024/02/25 03:06:08;;;;;;;8.40;7.50;;;;;;;17.05;43.23;99962.20;104398;1267;59928;-61
2024/02/25 03:10:35;;;;;;;9.40;7.70;;;;;;;17.09;42.97;99959.32;105931;1253;74120;-62
2024/02/25 03:13:56;;;;;;;9.10;7.00;;;;;;;17.07;43.17;99951.13;105116;1255;69059;-62
2024/02/25 03:17:51;;;;;;;14.30;7.90;;;;;;;17.11;43.03;99955.30;104741;1256;73037;-62
2024/02/25 03:21:06;;;;;;;8.50;7.00;;;;;;;17.04;43.11;99956.59;105536;1251;61264;-62
2024/02/25 03:23:48;;;;;;;9.00;7.00;;;;;;;17.01;43.17;99956.98;105043;1254;60256;-61
2024/02/25 03:26:29;;;;;;;9.10;7.00;;;;;;;16.94;43.33;99955.27;105571;1251;74430;-61
2024/02/25 03:29:47;;;;;;;8.80;7.40;;;;;;;16.89;43.66;99955.11;104595;1267;69069;-60
2024/02/25 03:32:15;;;;;;;9.30;7.40;;;;;;;17.06;43.22;99958.58;105562;1251;71843;-61
2024/02/25 03:35:13;;;;;;;11.70;7.90;;;;;;;17.10;43.20;99961.17;105028;1252;60852;-62
2024/02/25 03:38:32;;;;;;;8.80;7.30;;;;;;;17.00;43.24;99961.13;104645;1256;60567;-61
2024/02/25 03:41:12;;;;;;;8.70;7.80;;;;;;;17.02;43.37;99960.13;104632;1269;74467;-60
2024/02/25 03:44:50;;;;;;;9.30;7.60;;;;;;;16.76;43.56;99958.75;104697;1256;69247;-60
2024/02/25 03:48:31;;;;;;;10.70;8.10;;;;;;;16.82;43.66;99954.63;104570;1256;73117;-62
2024/02/25 03:52:26;;;;;;;11.50;8.30;;;;;;;16.71;43.69;99962.92;105531;1256;60602;-62
2024/02/25 03:56:09;;;;;;;11.40;7.90;;;;;;;16.80;43.89;99961.82;104537;1259;61669;-60
2024/02/25 03:58:49;;;;;;;11.00;8.20;;;;;;;16.86;43.57;99962.74;104695;1254;73975;-60
2024/02/25 04:01:24;;;;;;;10.50;8.30;;;;;;;16.42;44.33;99967.92;104608;1275;70267;-60
2024/02/25 04:05:20;;;;;;;11.40;9.10;;;;;;;16.39;44.47;99966.17;104735;1253;74006;-60
2024/02/25 04:08:33;;;;;;;10.50;8.30;;;;;;;16.41;44.34;99959.30;105059;1254;60773;-60
2024/02/25 04:11:07;;;;;;;11.20;8.80;;;;;;;16.25;44.78;99953.05;105765;1251;60533;-61
2024/02/25 04:14:04;;;;;;;11.50;8.80;;;;;;;16.22;44.84;99957.46;105920;1252;74312;-61
2024/02/25 04:16:30;;;;;;;10.50;8.60;;;;;;;16.42;44.43;99965.09;104483;1263;69945;-62
2024/02/25 04:19:11;;;;;;;11.30;8.90;;;;;;;16.33;44.75;99970.20;105017;1251;72111;-60
2024/02/25 04:22:10;;;;;;;12.70;8.60;;;;;;;16.58;44.02;99973.98;104815;1252;61394;-60
2024/02/25 04:24:37;;;;;;;12.00;8.70;;;;;;;16.40;44.44;99977.76;104359;1267;60091;-60
2024/02/25 04:27:17;;;;;;;10.90;8.60;;;;;;;16.17;44.78;99971.96;105324;1253;73000;-60
2024/02/25 04:29:51;;;;;;;10.20;8.70;;;;;;;16.20;44.86;99972.95;104595;1259;69272;-60
2024/02/25 04:32:54;;;;;;;10.60;8.50;;;;;;;16.30;44.59;99974.33;104953;1253;72954;-61
2024/02/25 04:35:34;;;;;;;12.10;8.80;;;;;;;16.34;44.37;99980.46;105113;1256;60969;-60
2024/02/25 04:38:52;;;;;;;11.50;8.70;;;;;;;16.23;44.62;99989.61;105106;1252;60966;-61
2024/02/25 04:41:26;;;;;;;12.50;8.80;;;;;;;16.38;44.26;99993.09;104925;1256;74264;-62
2024/02/25 04:44:38;;;;;;;15.80;8.70;;;;;;;16.26;44.47;99989.63;104621;1255;69609;-62
2024/02/25 04:47:26;;;;;;;9.00;7.30;;;;;;;16.24;44.55;99991.31;104397;1259;72298;-62
2024/02/25 04:50:37;;;;;;;9.10;8.00;;;;;;;16.31;44.48;99987.66;105222;1256;61219;-62
2024/02/25 04:53:25;;;;;;;11.70;8.10;;;;;;;16.34;44.41;99988.02;105261;1256;60947;-62
2024/02/25 04:56:36;;;;;;;10.20;8.10;;;;;;;16.35;44.16;99984.42;104656;1253;74012;-62
2024/02/25 04:59:20;;;;;;;10.00;8.70;;;;;;;16.31;44.24;99984.31;105432;1253;68259;-63
2024/02/25 05:02:00;;;;;;;10.10;8.30;;;;;;;16.42;44.05;99980.17;104479;1256;72962;-62
2024/02/25 05:05:19;;;;;;;9.40;7.60;;;;;;;16.26;44.10;99979.33;104845;1255;61255;-62
2024/02/25 05:07:56;;;;;;;9.40;8.20;;;;;;;16.25;44.02;99976.73;104823;1256;60562;-61
2024/02/25 05:10:31;;;;;;;10.80;7.90;;;;;;;16.23;44.04;99981.61;106489;1253;74173;-62
2024/02/25 05:14:15;;;;;;;9.60;7.70;;;;;;;16.27;44.13;99984.55;105408;1254;69897;-62
2024/02/25 05:17:19;;;;;;;;;;;;;;;16.19;44.19;99985.61;104472;1254;72881;-61
2024/02/25 05:19:58;;;;;;;8.20;6.50;;;;;;;16.23;44.01;99991.38;105219;1251;60719;-61
2024/02/25 05:22:33;;;;;;;9.40;6.70;;;;;;;16.22;44.04;99990.87;105019;1258;60915;-62
2024/02/25 05:25:52;;;;;;;7.50;6.60;;;;;;;16.23;44.00;100004.50;104490;1256;74027;-62
2024/02/25 05:28:19;;;;;;;8.20;6.80;;;;;;;16.28;43.81;100007.86;105320;1251;70070;-61
2024/02/25 05:30:53;;;;;;;8.50;6.40;;;;;;;16.30;43.79;100010.56;104698;1256;72758;-61
2024/02/25 05:34:48;;;;;;;;;;;;;;;16.33;43.71;100010.89;106325;1253;61111;-62
2024/02/25 05:37:59;;;;;;;7.70;6.50;;;;;;;16.34;43.76;100007.66;106219;1253;60620;-61
2024/02/25 05:40:51;;;;;;;7.60;6.40;;;;;;;16.42;43.50;100013.94;105014;1254;74649;-60
2024/02/25 05:44:11;;;;;;;7.60;6.80;;;;;;;16.60;43.14;100020.95;104691;1251;70914;-60
2024/02/25 05:49:51;;;;;;;8.60;7.10;;;;;;;16.84;44.18;100024.10;102233;1292;613842;-60
2024/02/25 05:53:28;;;;;;;8.40;6.70;;;;;;;17.56;41.07;100021.44;102262;1292;61430;-61
2024/02/25 05:57:11;;;;;;;7.70;6.30;;;;;;;17.72;40.46;100022.68;103781;1272;59993;-62
2024/02/25 05:59:39;;;;;;;11.40;6.50;;;;;;;17.61;40.65;100024.14;103696;1271;72881;-61
2024/02/25 06:02:19;;;;;;;6.10;5.50;;;;;;;17.48;40.58;100024.43;99971;1267;5994093;-61
2024/02/25 06:06:05;;;;;;;8.90;6.20;;;;;;;17.18;40.82;100016.44;103688;1269;61258;-61
2024/02/25 06:08:46;;;;;;;6.60;5.90;;;;;;;17.14;41.20;100031.39;103689;1272;59430;-61
2024/02/25 06:12:28;;;;;;;6.80;6.00;;;;;;;16.99;41.37;100025.27;104296;1269;72638;-61
2024/02/25 06:15:01;;;;;;;5.90;5.00;;;;;;;16.90;41.35;100023.92;103947;1282;68312;-61
2024/02/25 06:18:20;;;;;;;7.10;5.20;;;;;;;16.94;41.32;100019.73;104878;1266;72397;-62
2024/02/25 06:21:50;;;;;;;7.60;5.40;;;;;;;17.19;40.75;100019.27;103694;1266;60620;-61
2024/02/25 06:24:37;;;;;;;6.10;5.20;;;;;;;17.22;40.56;100021.34;103646;1266;60023;-60
2024/02/25 06:27:10;;;;;;;6.80;4.40;;;;;;;17.22;40.55;100023.11;104322;1265;73823;-61
2024/02/25 06:30:21;;;;;;;7.50;5.10;;;;;;;17.17;40.54;100023.25;104183;1266;70247;-61
2024/02/25 06:32:50;;;;;;;7.40;5.80;;;;;;;16.80;41.19;100028.42;103716;1269;71569;-61
2024/02/25 06:35:17;;;;;;;7.20;4.70;;;;;;;16.78;41.27;100025.52;104285;1266;60720;-62
2024/02/25 06:38:28;;;;;;;6.70;5.10;;;;;;;16.68;41.32;100030.54;103880;1266;60131;-64
2024/02/25 06:41:19;;;;;;;5.70;4.50;;;;;;;16.81;41.21;100025.00;104048;1270;72652;-62
2024/02/25 06:43:59;;;;;;;9.10;5.00;;;;;;;16.60;41.10;100022.03;103885;1267;70156;-62
2024/02/25 06:47:56;;;;;;;5.50;4.40;;;;;;;16.91;40.73;100019.02;103496;1267;73100;-62
2024/02/25 06:51:07;;;;;;;4.80;4.40;;;;;;;16.94;40.49;100018.52;103687;1267;61335;-62
2024/02/25 06:53:55;;;;;;;6.00;4.60;;;;;;;16.68;40.82;100023.62;104379;1269;60178;-61
2024/02/25 06:57:06;;;;;;;7.30;4.50;;;;;;;16.59;41.02;100022.77;103675;1285;72200;-61
2024/02/25 06:59:54;;;;;;;4.40;4.00;;;;;;;16.62;40.88;100022.97;104065;1266;70406;-60
2024/02/25 07:03:06;;;;;;;5.50;4.10;;;;;;;16.67;40.78;100016.06;103858;1272;72459;-60
2024/02/25 07:05:55;;;;;;;5.50;4.40;;;;;;;16.66;40.53;100019.55;104948;1258;60835;-67
2024/02/25 07:09:20;;;;;;;5.20;3.80;;;;;;;16.67;40.67;100020.19;104500;1260;60213;-61
2024/02/25 07:12:07;;;;;;;4.10;3.60;;;;;;;16.54;40.92;100021.85;105060;1260;73403;-66
2024/02/25 07:14:35;;;;;;;5.70;4.00;;;;;;;16.72;40.82;100023.90;105791;1260;69211;-60
2024/02/25 07:17:10;;;;;;;4.30;3.90;;;;;;;16.80;40.78;100027.50;104992;1258;73203;-61
2024/02/25 07:21:09;;;;;;;4.70;3.40;;;;;;;16.75;41.01;100032.40;104180;1260;61401;-60
2024/02/25 07:24:51;;;;;;;8.40;4.10;;;;;;;16.57;41.21;100030.84;104764;1262;60252;-60
2024/02/25 07:28:07;;;;;;;6.60;4.10;;;;;;;16.75;40.59;100030.80;104198;1262;72985;-63
2024/02/25 07:30:54;;;;;;;7.40;3.90;;;;;;;16.84;40.25;100026.77;104226;1259;70443;-62
2024/02/25 07:33:28;;;;;;;4.10;3.60;;;;;;;16.78;40.40;100029.38;104828;1260;73115;-61
2024/02/25 07:37:53;;;;;;;4.60;4.10;;;;;;;16.78;39.88;100031.54;104846;1262;60904;-65
2024/02/25 07:41:20;;;;;;;5.30;3.60;;;;;;;16.64;40.16;100031.83;104787;1261;60983;-67
2024/02/25 07:44:37;;;;;;;5.10;4.10;;;;;;;16.73;40.15;100031.48;104639;1260;73538;-66
2024/02/25 07:47:21;;;;;;;4.90;3.40;;;;;;;16.81;39.93;100031.53;103971;1260;70236;-66
2024/02/25 07:51:42;;;;;;;4.00;3.50;;;;;;;16.69;39.93;100034.37;104085;1262;72958;-69
2024/02/25 07:54:20;;;;;;;5.60;3.50;;;;;;;16.62;40.26;100039.92;105342;1262;60654;-65
2024/02/25 07:57:26;;;;;;;4.40;3.60;;;;;;;16.60;40.48;100038.99;106273;1258;60468;-66
2024/02/25 08:00:14;;;;;;;6.00;3.50;;;;;;;16.52;40.32;100036.47;104766;1265;73568;-66
2024/02/25 08:02:41;;;;;;;7.50;3.50;;;;;;;16.55;40.25;100040.39;104447;1262;69374;-65
2024/02/25 08:05:18;;;;;;;6.30;3.80;;;;;;;16.60;40.06;100041.84;104804;1260;73356;-65
2024/02/25 08:08:33;;;;;;;4.60;3.80;;;;;;;16.56;40.10;100041.39;104130;1276;60816;-67
2024/02/25 08:11:20;;;;;;;3.80;3.20;;;;;;;16.62;39.90;100044.89;104236;1263;59806;-63
2024/02/25 08:14:38;;;;;;;4.70;3.70;;;;;;;16.63;39.95;100043.61;104581;1260;73451;-61
2024/02/25 08:18:03;;;;;;;5.30;3.70;;;;;;;16.78;39.69;100039.66;104223;1263;69474;-69
2024/02/25 08:20:47;;;;;;;4.30;3.80;;;;;;;17.13;39.06;100039.82;103988;1262;72964;-66
2024/02/25 08:25:10;;;;;;;5.80;3.60;;;;;;;16.88;39.51;100050.40;104229;1260;61315;-66
2024/02/25 08:27:50;;;;;;;6.40;3.60;;;;;;;16.82;39.61;100050.94;105136;1260;60996;-62
2024/02/25 08:30:23;;;;;;;4.30;3.50;;;;;;;16.78;39.91;100053.46;104094;1266;73020;-65
2024/02/25 08:33:39;;;;;;;7.70;3.60;;;;;;;16.98;39.48;100053.16;104342;1259;69581;-67
2024/02/25 08:36:11;;;;;;;3.70;3.20;;;;;;;17.05;39.54;100052.15;105171;1262;73557;-68
2024/02/25 08:38:56;;;;;;;5.50;4.20;;;;;;;17.05;39.57;100046.54;104280;1262;62159;-68
2024/02/25 08:42:14;;;;;;;6.60;3.70;;;;;;;17.05;39.44;100038.36;104577;1262;60673;-68
2024/02/25 08:45:48;;;;;;;6.90;4.20;;;;;;;16.96;39.56;100029.34;104745;1254;71819;-68
2024/02/25 08:49:12;;;;;;;6.00;3.70;;;;;;;17.11;39.59;100031.09;104991;1258;69686;-63
2024/02/25 08:52:37;;;;;;;5.10;4.10;;;;;;;17.23;39.44;100021.81;104895;1259;71908;-62
2024/02/25 08:55:58;;;;;;;6.70;4.40;;;;;;;17.45;39.03;100020.55;105563;1253;62450;-62
2024/02/25 08:59:23;;;;;;;5.70;3.70;;;;;;;17.82;38.68;100025.93;104506;1254;59694;-63
2024/02/25 09:02:48;;;;;;;7.30;3.70;;;;;;;17.79;38.51;100025.11;104912;1257;71846;-63
2024/02/25 09:07:19;;;;;;;9.20;3.50;;;;;;;18.26;37.69;100033.23;104667;1259;70839;-62
2024/02/25 09:10:36;;;;;;;4.20;3.40;;;;;;;18.23;37.71;100028.70;104615;1259;72572;-62
2024/02/25 09:13:25;;;;;;;7.00;3.90;;;;;;;18.28;37.73;100030.45;105247;1257;61912;-63
2024/02/25 09:16:30;;;;;;;4.10;3.70;;;;;;;18.27;37.62;100031.05;104462;1257;60162;-66
2024/02/25 09:19:11;;;;;;;5.40;3.60;;;;;;;18.24;37.60;100036.96;105482;1254;71760;-62
2024/02/25 09:21:38;;;;;;;6.50;3.90;;;;;;;18.16;37.75;100030.93;104466;1258;69395;-62
2024/02/25 09:24:49;;;;;;;5.80;4.20;;;;;;;17.97;38.19;100034.17;104930;1253;73230;-62
2024/02/25 09:27:36;;;;;;;6.10;3.90;;;;;;;17.49;38.89;100030.36;105542;1254;62600;-62
2024/02/25 09:30:46;;;;;;;4.90;4.00;;;;;;;17.25;39.36;100024.88;106258;1254;59753;-63
2024/02/25 09:33:30;;;;;;;4.00;3.20;;;;;;;17.51;39.19;100013.59;105091;1258;74398;-61
2024/02/25 09:36:50;;;;;;;6.40;4.50;;;;;;;17.79;38.68;100009.46;105376;1254;70003;-62
2024/02/25 09:40:14;;;;;;;8.70;4.40;;;;;;;17.71;38.76;100006.46;104872;1256;72178;-62
2024/02/25 09:43:25;;;;;;;4.90;4.00;;;;;;;17.27;39.52;100002.55;104755;1256;60968;-64
2024/02/25 09:45:59;;;;;;;4.30;3.90;;;;;;;17.28;39.78;100002.34;105224;1253;59791;-62
2024/02/25 09:48:30;;;;;;;5.40;3.90;;;;;;;17.28;39.74;100002.33;105320;1262;72155;-61
2024/02/25 09:51:06;;;;;;;4.40;3.60;;;;;;;17.28;39.69;99997.77;104607;1259;70137;-61
2024/02/25 09:54:27;;;;;;;5.60;3.60;;;;;;;17.36;39.73;99999.19;104476;1260;71379;-62
2024/02/25 09:57:21;;;;;;;;;;;;;;;17.29;39.79;100000.84;104970;1256;62683;-61
2024/02/25 10:00:14;;;;;;;8.90;4.10;;;;;;;17.25;39.74;100000.96;105682;1259;59561;-61
2024/02/25 10:03:18;;;;;;;6.10;3.90;;;;;;;17.33;39.85;100000.60;104908;1259;72742;-60
2024/02/25 10:06:04;;;;;;;4.40;3.50;;;;;;;17.32;39.86;99992.52;104796;1259;69720;-61
2024/02/25 10:09:23;;;;;;;6.30;3.90;;;;;;;17.30;39.95;99991.09;105294;1259;73148;-64
2024/02/25 10:12:03;;;;;;;5.10;3.70;;;;;;;17.28;40.11;99991.70;105290;1253;61961;-63
2024/02/25 10:15:20;;;;;;;4.60;3.50;;;;;;;17.60;39.64;99990.30;104930;1259;59679;-63
2024/02/25 10:18:45;;;;;;;5.30;3.70;;;;;;;17.42;39.95;99988.17;104814;1253;73210;-64
2024/02/25 10:22:05;;;;;;;6.00;3.50;;;;;;;17.25;40.24;99984.09;105350;1259;68709;-61
2024/02/25 10:24:40;;;;;;;6.10;3.90;;;;;;;17.51;40.02;99982.91;104604;1264;72791;-62
2024/02/25 10:27:59;;;;;;;7.20;4.40;;;;;;;17.56;39.83;99974.10;105609;1259;62324;-63
2024/02/25 10:30:59;;;;;;;8.00;3.60;;;;;;;17.55;39.91;99970.45;105079;1260;61005;-63
2024/02/25 10:34:12;;;;;;;5.90;3.50;;;;;;;17.58;39.84;99967.27;104905;1256;72100;-63
2024/02/25 10:36:59;;;;;;;7.50;4.20;;;;;;;17.72;39.79;99975.90;105344;1257;69573;-61
2024/02/25 10:39:33;;;;;;;6.20;3.60;;;;;;;17.75;39.90;99978.69;104824;1260;73183;-62
2024/02/25 10:42:44;;;;;;;4.90;3.60;;;;;;;17.87;39.81;99976.30;104996;1259;60853;-62
2024/02/25 10:45:19;;;;;;;4.80;3.60;;;;;;;17.88;39.62;99979.46;104358;1267;60224;-63
2024/02/25 10:48:20;;;;;;;;;;;;;;;17.90;39.46;99980.02;104742;1259;73541;-61
2024/02/25 10:51:45;;;;;;;6.50;3.30;;;;;;;17.84;39.41;99981.61;104320;1260;69551;-62
2024/02/25 10:55:05;;;;;;;6.40;4.20;;;;;;;18.01;39.27;99989.25;105161;1253;71353;-61
2024/02/25 10:58:30;;;;;;;7.10;3.40;;;;;;;17.77;39.71;99987.45;105154;1258;61262;-61
2024/02/25 11:01:50;;;;;;;6.20;3.70;;;;;;;17.94;39.39;99986.30;104789;1260;60498;-60
2024/02/25 11:05:17;;;;;;;7.20;3.60;;;;;;;17.60;39.96;99988.18;105409;1254;72668;-61
2024/02/25 11:07:59;;;;;;;4.40;3.30;;;;;;;17.90;39.38;99987.30;104836;1266;70213;-62
2024/02/25 11:11:18;;;;;;;6.80;3.80;;;;;;;18.18;38.73;99987.14;105206;1258;74253;-61
2024/02/25 11:14:39;;;;;;;5.10;3.50;;;;;;;18.12;38.38;99986.86;104455;1264;60665;-61
2024/02/25 11:18:26;;;;;;;4.40;3.30;;;;;;;17.96;38.52;99985.83;105139;1259;60465;-62
2024/02/25 11:21:09;;;;;;;4.40;3.50;;;;;;;17.95;38.53;99984.98;105046;1257;73615;-67
2024/02/25 11:23:41;;;;;;;6.70;3.40;;;;;;;18.11;38.25;99975.94;105050;1257;69376;-70
2024/02/25 11:26:33;;;;;;;6.20;3.50;;;;;;;18.15;38.24;99971.23;104980;1254;73094;-67
2024/02/25 11:29:18;;;;;;;5.70;3.20;;;;;;;18.22;38.30;99970.90;105556;1254;61777;-66
2024/02/25 11:31:58;;;;;;;4.90;3.50;;;;;;;18.24;38.20;99974.70;104416;1259;60615;-64
2024/02/25 11:34:29;;;;;;;5.90;3.40;;;;;;;18.25;38.02;99973.91;104422;1271;72985;-65
2024/02/25 11:37:06;;;;;;;5.00;3.60;;;;;;;17.95;38.48;99974.73;104771;1259;69223;-64
2024/02/25 11:39:34;;;;;;;5.90;3.30;;;;;;;18.17;38.41;99978.36;104509;1259;72903;-63
2024/02/25 11:42:05;;;;;;;6.30;3.70;;;;;;;18.17;38.13;99981.23;105772;1259;61907;-65
2024/02/25 11:44:33;;;;;;;3.70;3.30;;;;;;;17.85;38.77;99990.84;104786;1259;60533;-61
2024/02/25 11:47:02;;;;;;;5.40;3.70;;;;;;;17.85;38.80;99976.81;105365;1257;73646;-63
2024/02/25 11:49:29;;;;;;;3.80;3.40;;;;;;;18.20;38.44;99987.89;104755;1259;69321;-62
2024/02/25 11:51:58;;;;;;;5.40;3.70;;;;;;;18.46;37.71;99989.09;105015;1260;73190;-62
2024/02/25 11:54:26;;;;;;;4.70;3.10;;;;;;;18.47;37.66;99985.52;104461;1254;62107;-62
2024/02/25 11:56:53;;;;;;;4.40;3.40;;;;;;;18.50;37.58;99990.81;105702;1259;60926;-61
2024/02/25 11:59:21;;;;;;;6.90;3.50;;;;;;;18.47;37.40;99988.73;104430;1260;74095;-64
2024/02/25 12:01:48;;;;;;;5.20;3.50;;;;;;;18.10;37.87;99989.49;104628;1254;70163;-63
2024/02/25 12:04:17;;;;;;;4.60;3.50;;;;;;;17.76;38.61;99992.96;104757;1264;74447;-62
2024/02/25 12:06:45;;;;;;;6.00;3.40;;;;;;;17.78;38.59;99990.58;104626;1257;61291;-63
2024/02/25 12:09:13;;;;;;;5.00;3.50;;;;;;;17.73;38.52;99987.33;104522;1257;60463;-62
2024/02/25 12:11:40;;;;;;;10.50;4.20;;;;;;;17.67;38.68;99985.29;105158;1253;74278;-63
2024/02/25 12:14:17;;;;;;;7.00;3.70;;;;;;;17.64;38.85;99985.98;105094;1260;69995;-62
2024/02/25 12:16:45;;;;;;;9.50;3.60;;;;;;;17.77;38.55;99988.00;104469;1259;73025;-63
2024/02/25 12:19:18;;;;;;;4.80;3.20;;;;;;;17.61;39.04;99992.76;106320;1254;60332;-60
2024/02/25 12:21:49;;;;;;;6.70;3.50;;;;;;;17.77;38.72;99987.98;104438;1259;60569;-62
2024/02/25 12:24:17;;;;;;;4.40;3.40;;;;;;;17.96;38.14;99984.23;104521;1272;74263;-63
2024/02/25 12:26:52;;;;;;;6.20;3.80;;;;;;;17.96;38.11;99983.50;104324;1260;69392;-63
2024/02/25 12:29:20;;;;;;;3.90;3.50;;;;;;;17.86;38.41;99980.85;104451;1259;72686;-63
2024/02/25 12:31:47;;;;;;;5.20;3.40;;;;;;;18.00;38.33;99974.58;104492;1260;61929;-62
2024/02/25 12:34:15;;;;;;;6.10;4.20;;;;;;;17.98;38.51;99973.84;105252;1254;60565;-62
2024/02/25 12:36:46;;;;;;;5.10;3.40;;;;;;;17.90;38.66;99968.86;104509;1257;73908;-65
2024/02/25 12:39:20;;;;;;;4.90;3.30;;;;;;;17.84;38.97;99970.48;104600;1267;69200;-63
2024/02/25 12:42:01;;;;;;;9.10;4.10;;;;;;;17.83;39.00;99976.23;104935;1254;73056;-62
2024/02/25 12:44:30;;;;;;;5.90;3.60;;;;;;;17.77;38.79;99973.57;104734;1257;61891;-62
2024/02/25 12:46:57;;;;;;;3.90;3.40;;;;;;;17.82;38.65;99975.55;105308;1259;59936;-62
2024/02/25 12:49:24;;;;;;;5.40;3.50;;;;;;;17.76;38.73;99980.05;104415;1275;74988;-61
2024/02/25 12:51:52;;;;;;;4.70;3.40;;;;;;;17.60;39.08;99984.69;105150;1260;70284;-61
2024/02/25 12:54:20;;;;;;;4.90;4.10;;;;;;;17.68;39.11;99977.24;105559;1260;72455;-61
2024/02/25 12:56:46;;;;;;;6.00;4.00;;;;;;;17.66;39.20;99978.05;105089;1254;61668;-62
2024/02/25 12:59:14;;;;;;;5.30;4.10;;;;;;;17.64;39.36;99976.25;105078;1258;61019;-61
2024/02/25 13:01:42;;;;;;;4.90;3.90;;;;;;;17.46;39.42;99974.96;105072;1258;74091;-62
2024/02/25 13:04:09;;;;;;;5.80;4.10;;;;;;;17.53;39.30;99979.46;104835;1259;70382;-62
2024/02/25 13:06:37;;;;;;;9.60;4.10;;;;;;;17.41;39.54;99978.48;104807;1266;72789;-61
2024/02/25 13:09:07;;;;;;;6.60;3.90;;;;;;;17.27;39.76;99973.00;105417;1259;61909;-63
2024/02/25 13:11:34;;;;;;;6.60;4.80;;;;;;;17.48;39.46;99973.77;105344;1257;59858;-61
2024/02/25 13:14:02;;;;;;;7.60;4.30;;;;;;;17.34;39.78;99966.32;104520;1260;73654;-61
2024/02/25 13:16:29;;;;;;;7.00;4.00;;;;;;;17.32;39.85;99968.42;105014;1258;68670;-62
2024/02/25 13:18:58;;;;;;;5.20;4.30;;;;;;;17.20;39.94;99970.30;104533;1260;72632;-63
2024/02/25 13:21:25;;;;;;;6.30;4.20;;;;;;;17.38;39.75;99973.68;104280;1274;60929;-62
2024/02/25 13:23:52;;;;;;;4.90;4.00;;;;;;;17.29;39.88;99979.98;104852;1257;60160;-60
2024/02/25 13:26:20;;;;;;;4.70;3.80;;;;;;;17.25;39.95;99975.98;104584;1260;73847;-61
2024/02/25 13:28:47;;;;;;;;;;;;;;;17.28;40.10;99980.56;104969;1257;70212;-62
2024/02/25 13:31:15;;;;;;;7.20;4.20;;;;;;;17.23;40.02;99978.94;105119;1257;72753;-62
2024/02/25 13:33:42;;;;;;;6.20;4.20;;;;;;;17.01;40.29;99976.27;105387;1254;62321;-62
2024/02/25 13:36:11;;;;;;;6.10;4.70;;;;;;;16.79;40.69;99977.83;104740;1257;60738;-63
2024/02/25 13:38:43;;;;;;;5.40;4.40;;;;;;;16.71;41.18;99974.11;104434;1264;73718;-62
2024/02/25 13:41:10;;;;;;;;;;;;;;;16.79;40.98;99972.52;104710;1258;69778;-62
2024/02/25 13:43:38;;;;;;;6.00;4.50;;;;;;;16.43;41.54;99955.98;104430;1260;73395;-62